Piedade, Brazil
Current Conditions -  °F | °C
As of 12:00 AM on Wednesday 22 Oct 2014 (Local Time) from SBSP Reporting Station
Overcast Overcast  
Wind Chill: 61°   Ceiling: 1800
Heat Index: 61°   Visibility: 6mi
Dew Point: 54°   Wind: 10mph
Humidity: 77%   Direction: 140°SE
Pressure: 30.24"   Gusts: NA
Location:  23.71°S, 47.43°W
Report Text: SBSP 220200Z 14009KT 9999 SCT013 OVC018 16/12 Q1024
Loading
Personal Weather Stations






























Interactive Weather Map
Tropical Storm Tracking
New forecast layout! Learn more

10-Day Weather Forecast

Advertisements
Track Severe Weather on mobile